createdAt,value
2023-12-15T00:01:47.931Z,6.99
2023-12-15T00:04:14.581Z,7.00
2023-12-15T00:06:41.219Z,7.00
2023-12-15T00:09:07.843Z,7.01
2023-12-15T00:11:34.434Z,7.01
2023-12-15T00:14:01.074Z,7.01
2023-12-15T00:16:27.679Z,7.01
2023-12-15T00:18:54.298Z,7.03
2023-12-15T00:21:21.832Z,7.01
2023-12-15T00:23:48.381Z,7.03
2023-12-15T00:26:15.083Z,7.03
2023-12-15T00:28:41.699Z,7.02
2023-12-15T00:31:08.294Z,7.01
2023-12-15T00:33:34.960Z,6.98
2023-12-15T00:36:01.590Z,6.94
2023-12-15T00:38:28.276Z,6.89
2023-12-15T00:40:54.973Z,6.84
2023-12-15T00:43:21.561Z,6.80
2023-12-15T00:45:48.114Z,6.71
2023-12-15T00:48:14.700Z,6.67
2023-12-15T00:50:41.322Z,6.59
2023-12-15T00:53:07.850Z,6.48
2023-12-15T00:55:34.412Z,6.41
2023-12-15T00:58:01.012Z,6.34
2023-12-15T01:00:27.531Z,6.29
2023-12-15T01:02:54.570Z,6.28
2023-12-15T01:05:22.435Z,6.36
2023-12-15T01:07:49.874Z,6.38
2023-12-15T01:10:16.643Z,6.44
2023-12-15T01:12:43.165Z,6.47
2023-12-15T01:15:10.223Z,6.50
2023-12-15T01:17:37.269Z,6.59
2023-12-15T01:20:04.478Z,6.62
2023-12-15T01:22:31.127Z,6.67
2023-12-15T01:24:57.879Z,6.70
2023-12-15T01:27:24.456Z,6.68
2023-12-15T01:29:50.996Z,6.65
2023-12-15T01:32:17.670Z,6.62
2023-12-15T01:34:44.256Z,6.62
2023-12-15T01:37:10.827Z,6.61
2023-12-15T01:39:37.419Z,6.61
2023-12-15T01:42:04.442Z,6.61
2023-12-15T01:44:31.110Z,6.58
2023-12-15T01:46:57.757Z,6.61
2023-12-15T01:49:24.620Z,6.64
2023-12-15T01:51:51.576Z,6.65
2023-12-15T01:54:18.108Z,6.66
2023-12-15T01:56:44.747Z,6.71
2023-12-15T01:59:12.439Z,6.71
2023-12-15T02:01:39.270Z,6.71
2023-12-15T02:04:06.171Z,6.72
2023-12-15T02:06:32.748Z,6.75
2023-12-15T02:08:59.354Z,6.77
2023-12-15T02:11:26.009Z,6.80
2023-12-15T02:13:52.639Z,6.79
2023-12-15T02:16:19.229Z,6.80
2023-12-15T02:18:45.965Z,6.83
2023-12-15T02:21:12.655Z,6.80
2023-12-15T02:23:39.203Z,6.80
2023-12-15T02:26:05.896Z,6.83
2023-12-15T02:28:32.555Z,6.86
2023-12-15T02:30:59.161Z,6.90
2023-12-15T02:33:26.038Z,6.92
2023-12-15T02:35:52.998Z,6.94
2023-12-15T02:38:19.856Z,6.93
2023-12-15T02:40:46.593Z,6.93
2023-12-15T02:43:13.341Z,6.91
2023-12-15T02:45:39.975Z,6.89
2023-12-15T02:48:06.747Z,6.88
2023-12-15T02:50:33.684Z,6.88
2023-12-15T02:53:00.420Z,6.90
2023-12-15T02:55:26.984Z,6.90
2023-12-15T02:57:53.594Z,6.89
2023-12-15T03:00:20.434Z,6.90
2023-12-15T03:02:47.006Z,6.90
2023-12-15T03:05:13.670Z,6.91
2023-12-15T03:07:40.349Z,6.91
2023-12-15T03:10:07.340Z,6.91
2023-12-15T03:12:33.926Z,6.93
2023-12-15T03:15:00.740Z,6.94
2023-12-15T03:17:27.441Z,6.93
2023-12-15T03:19:54.148Z,6.94
2023-12-15T03:22:20.691Z,6.96
2023-12-15T03:24:47.540Z,6.99
2023-12-15T03:27:14.137Z,7.01
2023-12-15T03:29:40.694Z,6.97
2023-12-15T03:32:07.514Z,6.96
2023-12-15T03:34:34.076Z,6.96
2023-12-15T03:37:00.700Z,6.97
2023-12-15T03:39:27.327Z,6.97
2023-12-15T03:41:53.848Z,6.98
2023-12-15T03:44:20.578Z,7.00
2023-12-15T03:46:47.155Z,6.98
2023-12-15T03:49:13.873Z,6.96
2023-12-15T03:51:40.448Z,6.95
2023-12-15T03:54:06.991Z,6.93
2023-12-15T03:56:33.672Z,6.93
2023-12-15T03:59:01.885Z,6.94
2023-12-15T04:01:28.557Z,6.96
2023-12-15T04:03:55.115Z,6.95
2023-12-15T04:06:21.661Z,6.94
2023-12-15T04:08:48.362Z,6.96
2023-12-15T04:11:17.735Z,6.98
2023-12-15T04:13:44.459Z,7.00
2023-12-15T04:16:11.031Z,7.02
2023-12-15T04:18:37.648Z,7.04
2023-12-15T04:21:05.255Z,7.07
2023-12-15T04:23:32.589Z,7.07
2023-12-15T04:25:59.507Z,7.03
2023-12-15T04:28:26.524Z,7.01
2023-12-15T04:31:16.115Z,7.01
2023-12-15T04:33:43.008Z,7.00
2023-12-15T04:36:10.182Z,7.02
2023-12-15T04:38:36.817Z,7.00
2023-12-15T04:41:03.441Z,6.98
2023-12-15T04:43:30.144Z,6.95
2023-12-15T04:45:59.780Z,6.94
2023-12-15T04:48:26.444Z,6.93
2023-12-15T04:50:53.429Z,6.92
2023-12-15T04:53:20.096Z,6.92
2023-12-15T04:55:46.718Z,6.88
2023-12-15T04:58:13.245Z,6.86
2023-12-15T05:00:39.838Z,6.86
2023-12-15T05:03:06.446Z,6.87
2023-12-15T05:05:33.188Z,6.86
2023-12-15T05:07:59.882Z,6.86
2023-12-15T05:10:26.453Z,6.88
2023-12-15T05:12:53.014Z,6.88
2023-12-15T05:15:19.727Z,6.89
2023-12-15T05:17:46.859Z,6.92
2023-12-15T05:20:13.549Z,6.92
2023-12-15T05:22:40.264Z,6.95
2023-12-15T05:25:07.283Z,6.95
2023-12-15T05:27:33.974Z,6.97
2023-12-15T05:30:00.583Z,6.95
2023-12-15T05:32:27.209Z,6.95
2023-12-15T05:34:53.832Z,6.95
2023-12-15T05:37:21.293Z,6.95
2023-12-15T05:39:47.930Z,6.94
2023-12-15T05:42:14.569Z,6.91
2023-12-15T05:44:42.224Z,6.91
2023-12-15T05:47:09.463Z,6.91
2023-12-15T05:49:42.437Z,6.88
2023-12-15T05:52:10.959Z,6.86
2023-12-15T05:54:41.129Z,6.84
2023-12-15T05:57:10.412Z,6.82
2023-12-15T05:59:38.700Z,6.82
2023-12-15T06:02:05.547Z,6.80
2023-12-15T06:04:32.114Z,6.78
2023-12-15T06:06:58.649Z,6.74
2023-12-15T06:09:25.318Z,6.73
2023-12-15T06:11:51.939Z,6.73
2023-12-15T06:14:19.378Z,6.72
2023-12-15T06:16:45.950Z,6.70
2023-12-15T06:19:12.560Z,6.67
2023-12-15T06:21:39.194Z,6.65
2023-12-15T06:24:06.292Z,6.64
2023-12-15T06:26:33.399Z,6.60
2023-12-15T06:28:59.963Z,6.58
2023-12-15T06:31:30.471Z,6.52
2023-12-15T06:33:57.116Z,6.51
2023-12-15T06:36:25.539Z,6.49
2023-12-15T06:38:53.264Z,6.47
2023-12-15T06:41:19.995Z,6.44
2023-12-15T06:43:46.719Z,6.43
2023-12-15T06:46:14.022Z,6.44
2023-12-15T06:48:40.757Z,6.44
2023-12-15T06:51:07.586Z,6.43
2023-12-15T06:53:34.656Z,6.43
2023-12-15T06:56:01.574Z,6.43
2023-12-15T06:58:28.174Z,6.41
2023-12-15T07:00:54.867Z,6.41
2023-12-15T07:03:21.701Z,6.40
2023-12-15T07:05:48.726Z,6.39
2023-12-15T07:08:15.612Z,6.39
2023-12-15T07:10:42.776Z,6.38
2023-12-15T07:13:09.562Z,6.38
2023-12-15T07:15:36.917Z,6.37
2023-12-15T07:18:03.692Z,6.34
2023-12-15T07:20:30.423Z,6.35
2023-12-15T07:22:57.046Z,6.33
2023-12-15T07:25:25.546Z,6.34
2023-12-15T07:27:52.532Z,6.32
2023-12-15T07:30:19.265Z,6.32
2023-12-15T07:32:45.933Z,6.32
2023-12-15T07:35:20.909Z,6.32
2023-12-15T07:37:57.049Z,6.31
2023-12-15T07:40:24.111Z,6.34
2023-12-15T07:42:50.655Z,6.33
2023-12-15T07:45:17.231Z,6.33
2023-12-15T07:47:43.927Z,6.33
2023-12-15T07:50:11.123Z,6.34
2023-12-15T07:52:37.690Z,6.34
2023-12-15T07:55:04.838Z,6.33
2023-12-15T07:57:33.651Z,6.33
2023-12-15T08:00:00.241Z,6.34
2023-12-15T08:02:26.913Z,6.34
2023-12-15T08:04:53.464Z,6.34
2023-12-15T08:07:20.050Z,6.33
2023-12-15T08:09:46.603Z,6.36
2023-12-15T08:12:13.215Z,6.40
2023-12-15T08:14:40.323Z,6.42
2023-12-15T08:17:07.076Z,6.44
2023-12-15T08:19:33.887Z,6.50
2023-12-15T08:22:03.920Z,6.49
2023-12-15T08:24:30.476Z,6.57
2023-12-15T08:26:58.794Z,6.59
2023-12-15T08:29:25.877Z,6.61
2023-12-15T08:31:52.554Z,6.60
2023-12-15T08:34:19.424Z,6.60
2023-12-15T08:36:46.026Z,6.62
2023-12-15T08:39:15.650Z,6.66
2023-12-15T08:41:44.176Z,6.68
2023-12-15T08:44:19.525Z,6.71
2023-12-15T08:46:51.321Z,6.69
2023-12-15T08:49:18.031Z,6.74
2023-12-15T08:51:45.479Z,6.79
2023-12-15T08:54:14.559Z,6.82
2023-12-15T08:56:42.649Z,6.80
2023-12-15T08:59:09.269Z,6.85
2023-12-15T09:01:36.043Z,6.93
2023-12-15T09:04:02.633Z,6.99
2023-12-15T09:06:32.832Z,7.03
2023-12-15T09:09:03.780Z,7.06
2023-12-15T09:11:30.491Z,7.03
2023-12-15T09:13:57.153Z,7.09
2023-12-15T09:16:23.926Z,7.08
2023-12-15T09:18:50.616Z,7.09
2023-12-15T09:21:17.215Z,7.14
2023-12-15T09:23:43.760Z,7.11
2023-12-15T09:26:10.499Z,7.12
2023-12-15T09:28:37.081Z,7.11
2023-12-15T09:31:03.666Z,7.12
2023-12-15T09:33:30.292Z,7.07
2023-12-15T09:35:57.532Z,7.10
2023-12-15T09:38:24.277Z,7.16
2023-12-15T09:40:50.984Z,7.19
2023-12-15T09:43:17.530Z,7.20
2023-12-15T09:45:45.645Z,7.18
2023-12-15T09:48:14.268Z,7.21
2023-12-15T09:50:50.496Z,7.26
2023-12-15T09:53:18.730Z,7.27
2023-12-15T09:55:45.918Z,7.34
2023-12-15T09:58:13.348Z,7.40
2023-12-15T10:00:40.385Z,7.44
2023-12-15T10:03:07.101Z,7.53
2023-12-15T10:05:34.394Z,7.58
2023-12-15T10:08:01.926Z,7.65
2023-12-15T10:10:28.691Z,7.71
2023-12-15T10:12:58.295Z,7.74
2023-12-15T10:15:28.594Z,7.83
2023-12-15T10:17:57.898Z,7.90
2023-12-15T10:20:24.716Z,7.96
2023-12-15T10:23:06.217Z,8.05
2023-12-15T10:25:36.044Z,8.09
2023-12-15T10:28:05.849Z,8.14
2023-12-15T10:30:32.556Z,8.19
2023-12-15T10:33:00.716Z,8.21
2023-12-15T10:35:30.147Z,8.19
2023-12-15T10:37:57.149Z,8.20
2023-12-15T10:40:24.106Z,8.19
2023-12-15T10:42:52.535Z,8.20
2023-12-15T10:45:21.151Z,8.22
2023-12-15T10:47:51.746Z,8.25
2023-12-15T10:50:19.644Z,8.29
2023-12-15T10:52:46.468Z,8.37
2023-12-15T10:55:15.121Z,8.45
2023-12-15T10:57:42.492Z,8.50
2023-12-15T11:00:11.311Z,8.54
2023-12-15T11:02:40.990Z,8.60
2023-12-15T11:05:10.858Z,8.64
2023-12-15T11:07:39.605Z,8.70
2023-12-15T11:10:07.228Z,8.77
2023-12-15T11:12:38.326Z,8.82
2023-12-15T11:15:07.982Z,8.88
2023-12-15T11:17:38.725Z,8.93
2023-12-15T11:20:27.726Z,9.03
2023-12-15T11:22:57.418Z,9.11
2023-12-15T11:25:47.020Z,9.24
2023-12-15T11:28:17.308Z,9.32
2023-12-15T11:30:55.131Z,9.43
2023-12-15T11:33:22.097Z,9.56
2023-12-15T11:35:59.046Z,9.62
2023-12-15T11:38:25.938Z,9.69
2023-12-15T11:40:54.189Z,9.70
2023-12-15T11:43:21.575Z,9.67
2023-12-15T11:45:49.906Z,9.63
2023-12-15T11:48:17.906Z,9.61
2023-12-15T11:50:45.882Z,9.59
2023-12-15T11:53:16.239Z,9.58
2023-12-15T11:55:45.939Z,9.58
2023-12-15T11:58:16.278Z,9.56
2023-12-15T12:00:43.762Z,9.52
2023-12-15T12:03:14.564Z,9.51
2023-12-15T12:05:43.947Z,9.50
2023-12-15T12:08:11.689Z,9.50
2023-12-15T12:10:40.978Z,9.51
2023-12-15T12:13:08.938Z,9.53
2023-12-15T12:15:49.432Z,9.56
2023-12-15T12:18:16.155Z,9.57
2023-12-15T12:20:43.090Z,9.58
2023-12-15T12:23:10.371Z,9.54
2023-12-15T12:25:36.921Z,9.52
2023-12-15T12:28:05.321Z,9.51
2023-12-15T12:30:31.910Z,9.49
2023-12-15T12:32:58.610Z,9.48
2023-12-15T12:35:25.318Z,9.50
2023-12-15T12:37:51.875Z,9.49
2023-12-15T12:40:18.546Z,9.49
2023-12-15T12:42:45.736Z,9.52
2023-12-15T12:45:12.626Z,9.51
2023-12-15T12:47:42.441Z,9.53
2023-12-15T12:50:11.301Z,9.53
2023-12-15T12:52:38.163Z,9.49
2023-12-15T12:55:07.925Z,9.48
2023-12-15T12:57:34.717Z,9.46
2023-12-15T13:00:01.581Z,9.45
2023-12-15T13:02:28.282Z,9.45
2023-12-15T13:04:55.009Z,9.46
2023-12-15T13:07:21.609Z,9.50
2023-12-15T13:09:48.177Z,9.52
2023-12-15T13:12:19.035Z,9.54
2023-12-15T13:14:49.051Z,9.55
2023-12-15T13:17:17.030Z,9.57
2023-12-15T13:19:43.717Z,9.59
2023-12-15T13:22:10.378Z,9.57
2023-12-15T13:24:46.849Z,9.55
2023-12-15T13:27:22.955Z,9.52
2023-12-15T13:29:50.200Z,9.49
2023-12-15T13:32:18.946Z,9.46
2023-12-15T13:34:46.702Z,9.44
2023-12-15T13:37:14.138Z,9.39
2023-12-15T13:39:42.799Z,9.38
2023-12-15T13:42:09.536Z,9.36
2023-12-15T13:44:37.186Z,9.34
2023-12-15T13:47:04.722Z,9.33
2023-12-15T13:49:33.170Z,9.34
2023-12-15T13:52:00.948Z,9.31
2023-12-15T13:54:28.236Z,9.28
2023-12-15T13:56:57.377Z,9.23
2023-12-15T13:59:24.868Z,9.16
2023-12-15T14:01:51.576Z,9.08
2023-12-15T14:04:18.259Z,9.07
2023-12-15T14:06:49.441Z,9.04
2023-12-15T14:09:16.333Z,9.02
2023-12-15T14:11:43.573Z,9.00
2023-12-15T14:14:10.342Z,8.99
2023-12-15T14:16:44.082Z,8.96
2023-12-15T14:19:18.090Z,8.94
2023-12-15T14:21:45.820Z,8.92
2023-12-15T14:24:12.553Z,8.92
2023-12-15T14:26:40.380Z,8.91
2023-12-15T14:29:07.614Z,8.88
2023-12-15T14:31:34.207Z,8.86
2023-12-15T14:34:00.813Z,8.84
2023-12-15T14:36:28.661Z,8.83
2023-12-15T14:38:55.270Z,8.80
2023-12-15T14:41:22.495Z,8.79
2023-12-15T14:43:49.195Z,8.78
2023-12-15T14:46:15.822Z,8.74
2023-12-15T14:48:43.955Z,8.72
2023-12-15T14:51:10.790Z,8.71
2023-12-15T14:53:37.578Z,8.69
2023-12-15T14:56:05.254Z,8.68
2023-12-15T14:58:31.973Z,8.65
2023-12-15T15:00:58.793Z,8.64
2023-12-15T15:03:25.516Z,8.64
2023-12-15T15:05:52.164Z,8.62
2023-12-15T15:08:18.903Z,8.60
2023-12-15T15:10:45.663Z,8.58
2023-12-15T15:13:12.320Z,8.56
2023-12-15T15:15:38.880Z,8.56
2023-12-15T15:18:05.732Z,8.52
2023-12-15T15:20:32.636Z,8.49
2023-12-15T15:22:59.282Z,8.47
2023-12-15T15:25:25.844Z,8.45
2023-12-15T15:27:52.415Z,8.42
2023-12-15T15:30:19.029Z,8.41
2023-12-15T15:32:45.845Z,8.37
2023-12-15T15:35:13.353Z,8.34
2023-12-15T15:37:40.498Z,8.33
2023-12-15T15:40:07.926Z,8.32
2023-12-15T15:42:34.552Z,8.27
2023-12-15T15:45:01.139Z,8.24
2023-12-15T15:47:30.624Z,8.20
2023-12-15T15:49:58.166Z,8.15
2023-12-15T15:52:26.698Z,8.12
2023-12-15T15:54:53.493Z,8.10
2023-12-15T15:57:20.455Z,8.07
2023-12-15T15:59:47.366Z,8.07
2023-12-15T16:02:14.151Z,8.06
2023-12-15T16:04:41.056Z,8.04
2023-12-15T16:07:07.786Z,8.03
2023-12-15T16:09:34.472Z,8.01
2023-12-15T16:12:01.058Z,8.03
2023-12-15T16:14:27.645Z,8.01
2023-12-15T16:16:54.622Z,8.00
2023-12-15T16:19:21.532Z,7.93
2023-12-15T16:21:48.414Z,7.90
2023-12-15T16:24:15.041Z,7.86
2023-12-15T16:26:44.930Z,7.82
2023-12-15T16:29:11.622Z,7.77
2023-12-15T16:31:38.294Z,7.75
2023-12-15T16:34:05.851Z,7.72
2023-12-15T16:36:32.951Z,7.70
2023-12-15T16:38:59.524Z,7.72
2023-12-15T16:41:33.993Z,7.67
2023-12-15T16:44:00.675Z,7.66
2023-12-15T16:46:27.365Z,7.64
2023-12-15T16:48:54.519Z,7.63
2023-12-15T16:51:22.584Z,7.63
2023-12-15T16:53:50.247Z,7.62
2023-12-15T16:56:16.778Z,7.60
2023-12-15T16:58:43.847Z,7.59
2023-12-15T17:01:11.090Z,7.60
2023-12-15T17:03:42.835Z,7.61
2023-12-15T17:06:13.424Z,7.64
2023-12-15T17:08:42.904Z,7.64
2023-12-15T17:11:10.567Z,7.63
2023-12-15T17:13:37.525Z,7.62
2023-12-15T17:16:05.247Z,7.61
2023-12-15T17:18:35.210Z,7.58
2023-12-15T17:21:01.931Z,7.56
2023-12-15T17:23:28.664Z,7.56
2023-12-15T17:25:55.220Z,7.54
2023-12-15T17:28:21.898Z,7.55
2023-12-15T17:30:49.125Z,7.53
2023-12-15T17:33:17.058Z,7.51
2023-12-15T17:35:43.834Z,7.51
2023-12-15T17:38:10.471Z,7.49
2023-12-15T17:40:37.167Z,7.48
2023-12-15T17:43:06.203Z,7.48
2023-12-15T17:45:38.648Z,7.49
2023-12-15T17:48:05.697Z,7.49
2023-12-15T17:50:32.354Z,7.46
2023-12-15T17:52:58.881Z,7.45
2023-12-15T17:55:25.573Z,7.42
2023-12-15T17:57:52.235Z,7.41
2023-12-15T18:00:19.452Z,7.40
2023-12-15T18:02:46.023Z,7.38
2023-12-15T18:05:13.020Z,7.38
2023-12-15T18:07:39.882Z,7.38
2023-12-15T18:10:07.441Z,7.40
2023-12-15T18:12:34.186Z,7.45
2023-12-15T18:15:00.784Z,7.49
2023-12-15T18:17:27.555Z,7.52
2023-12-15T18:19:54.179Z,7.57
2023-12-15T18:22:20.826Z,7.58
2023-12-15T18:24:47.499Z,7.57
2023-12-15T18:27:14.214Z,7.57
2023-12-15T18:29:41.130Z,7.55
2023-12-15T18:32:07.740Z,7.56
2023-12-15T18:34:34.462Z,7.53
2023-12-15T18:37:02.578Z,7.50
2023-12-15T18:39:29.222Z,7.47
2023-12-15T18:41:55.815Z,7.48
2023-12-15T18:44:22.701Z,7.50
2023-12-15T18:46:59.285Z,7.53
2023-12-15T18:49:25.947Z,7.54
2023-12-15T18:51:53.339Z,7.56
2023-12-15T18:54:19.913Z,7.55
2023-12-15T18:56:46.498Z,7.53
2023-12-15T18:59:13.170Z,7.52
2023-12-15T19:01:39.923Z,7.51
2023-12-15T19:04:06.762Z,7.50
2023-12-15T19:06:33.334Z,7.49
2023-12-15T19:09:00.069Z,7.47
2023-12-15T19:11:35.589Z,7.46
2023-12-15T19:14:03.573Z,7.45
2023-12-15T19:16:31.421Z,7.42
2023-12-15T19:18:58.286Z,7.41
2023-12-15T19:21:24.954Z,7.40
2023-12-15T19:23:53.334Z,7.37
2023-12-15T19:26:20.752Z,7.36
2023-12-15T19:28:47.918Z,7.37
2023-12-15T19:31:14.732Z,7.35
2023-12-15T19:33:42.520Z,7.35
2023-12-15T19:36:09.934Z,7.35
2023-12-15T19:38:36.544Z,7.35
2023-12-15T19:41:03.653Z,7.37
2023-12-15T19:43:30.331Z,7.38
2023-12-15T19:45:57.047Z,7.38
2023-12-15T19:48:23.730Z,7.40
2023-12-15T19:50:51.386Z,7.38
2023-12-15T19:53:17.942Z,7.38
2023-12-15T19:55:45.661Z,7.38
2023-12-15T19:58:12.391Z,7.38
2023-12-15T20:00:39.426Z,7.40
2023-12-15T20:03:06.003Z,7.39
2023-12-15T20:05:32.586Z,7.41
2023-12-15T20:07:59.142Z,7.39
2023-12-15T20:10:25.807Z,7.41
2023-12-15T20:12:52.519Z,7.40
2023-12-15T20:15:19.121Z,7.40
2023-12-15T20:17:45.737Z,7.38
2023-12-15T20:20:13.489Z,7.36
2023-12-15T20:22:40.057Z,7.35
2023-12-15T20:25:07.924Z,7.37
2023-12-15T20:27:42.329Z,7.38
2023-12-15T20:30:11.921Z,7.38
2023-12-15T20:32:38.913Z,7.37
2023-12-15T20:35:09.892Z,7.34
2023-12-15T20:37:36.912Z,7.32
2023-12-15T20:40:05.740Z,7.30
2023-12-15T20:42:32.432Z,7.29
2023-12-15T20:44:59.973Z,7.32
2023-12-15T20:47:28.397Z,7.33
2023-12-15T20:49:55.335Z,7.37
2023-12-15T20:52:22.333Z,7.35
2023-12-15T20:54:49.038Z,7.33
2023-12-15T20:57:15.832Z,7.29
2023-12-15T20:59:42.663Z,7.27
2023-12-15T21:02:09.572Z,7.28
2023-12-15T21:04:39.047Z,7.30
2023-12-15T21:07:06.368Z,7.29
2023-12-15T21:09:33.041Z,7.28
2023-12-15T21:12:00.501Z,7.28
2023-12-15T21:14:27.214Z,7.28
2023-12-15T21:16:56.024Z,7.25
2023-12-15T21:19:22.775Z,7.27
2023-12-15T21:21:49.935Z,7.26
2023-12-15T21:24:21.080Z,7.25
2023-12-15T21:26:47.694Z,7.23
2023-12-15T21:29:14.266Z,7.23
2023-12-15T21:31:40.857Z,7.22
2023-12-15T21:34:08.253Z,7.23
2023-12-15T21:36:34.938Z,7.22
2023-12-15T21:39:01.555Z,7.21
2023-12-15T21:41:28.216Z,7.20
2023-12-15T21:43:56.398Z,7.20
2023-12-15T21:46:23.150Z,7.21
2023-12-15T21:48:49.870Z,7.21
2023-12-15T21:51:21.845Z,7.19
2023-12-15T21:53:48.647Z,7.17
2023-12-15T21:56:15.256Z,7.16
2023-12-15T21:58:41.857Z,7.17
2023-12-15T22:01:14.534Z,7.18
2023-12-15T22:03:41.291Z,7.25
2023-12-15T22:06:08.903Z,7.27
2023-12-15T22:08:35.524Z,7.30
2023-12-15T22:11:02.124Z,7.32
2023-12-15T22:13:28.853Z,7.33
2023-12-15T22:15:55.530Z,7.34
2023-12-15T22:18:22.267Z,7.33
2023-12-15T22:20:48.883Z,7.34
2023-12-15T22:23:15.814Z,7.34
2023-12-15T22:25:43.068Z,7.33
2023-12-15T22:28:09.796Z,7.35
2023-12-15T22:30:36.541Z,7.37
2023-12-15T22:33:03.200Z,7.37
2023-12-15T22:35:29.884Z,7.38
2023-12-15T22:37:56.447Z,7.38
2023-12-15T22:40:23.173Z,7.40
2023-12-15T22:42:49.835Z,7.41
2023-12-15T22:45:17.852Z,7.40
2023-12-15T22:47:44.891Z,7.42
2023-12-15T22:50:11.890Z,7.44
2023-12-15T22:52:38.733Z,7.46
2023-12-15T22:55:05.950Z,7.49
2023-12-15T22:57:32.565Z,7.51
2023-12-15T22:59:59.121Z,7.54
2023-12-15T23:02:25.630Z,7.54
2023-12-15T23:04:52.441Z,7.53
2023-12-15T23:07:19.101Z,7.51
2023-12-15T23:09:45.920Z,7.52
2023-12-15T23:12:12.612Z,7.51
2023-12-15T23:14:41.510Z,7.51
2023-12-15T23:17:09.409Z,7.49
2023-12-15T23:19:36.022Z,7.50
2023-12-15T23:22:04.050Z,7.47
2023-12-15T23:24:30.764Z,7.47
2023-12-15T23:26:57.320Z,7.43
2023-12-15T23:29:23.894Z,7.41
2023-12-15T23:31:50.441Z,7.42
2023-12-15T23:34:17.061Z,7.38
2023-12-15T23:36:43.702Z,7.35
2023-12-15T23:39:10.450Z,7.36
2023-12-15T23:41:37.049Z,7.36
2023-12-15T23:44:03.597Z,7.37
2023-12-15T23:46:31.725Z,7.35
2023-12-15T23:48:58.486Z,7.33
2023-12-15T23:51:25.181Z,7.32
2023-12-15T23:53:51.765Z,7.31
2023-12-15T23:56:18.436Z,7.30
2023-12-15T23:58:45.027Z,7.27
